sensor_id;sensor_type;location;lat;lon;timestamp;P1;durP1;ratioP1;P2;durP2;ratioP2
11042;SDS011;5574;48.786;10.120;2023-06-10T00:01:51;5.65;;;5.25;;
11042;SDS011;5574;48.786;10.120;2023-06-10T00:04:20;5.97;;;5.47;;
11042;SDS011;5574;48.786;10.120;2023-06-10T00:06:47;5.88;;;5.47;;
11042;SDS011;5574;48.786;10.120;2023-06-10T00:09:15;5.90;;;5.40;;
11042;SDS011;5574;48.786;10.120;2023-06-10T00:11:43;5.90;;;5.22;;
11042;SDS011;5574;48.786;10.120;2023-06-10T00:14:10;5.53;;;5.03;;
11042;SDS011;5574;48.786;10.120;2023-06-10T00:16:36;5.78;;;5.13;;
11042;SDS011;5574;48.786;10.120;2023-06-10T00:19:03;6.10;;;5.60;;
11042;SDS011;5574;48.786;10.120;2023-06-10T00:21:31;5.50;;;5.10;;
11042;SDS011;5574;48.786;10.120;2023-06-10T00:24:02;5.40;;;5.00;;
11042;SDS011;5574;48.786;10.120;2023-06-10T00:26:31;5.43;;;5.03;;
11042;SDS011;5574;48.786;10.120;2023-06-10T00:28:58;5.75;;;5.20;;
11042;SDS011;5574;48.786;10.120;2023-06-10T00:31:25;5.43;;;5.03;;
11042;SDS011;5574;48.786;10.120;2023-06-10T00:33:52;5.43;;;5.00;;
11042;SDS011;5574;48.786;10.120;2023-06-10T00:36:19;5.63;;;5.22;;
11042;SDS011;5574;48.786;10.120;2023-06-10T00:38:45;5.90;;;5.35;;
11042;SDS011;5574;48.786;10.120;2023-06-10T00:41:12;6.57;;;5.57;;
11042;SDS011;5574;48.786;10.120;2023-06-10T00:43:40;8.05;;;5.18;;
11042;SDS011;5574;48.786;10.120;2023-06-10T00:46:06;5.78;;;5.28;;
11042;SDS011;5574;48.786;10.120;2023-06-10T00:48:33;5.97;;;5.40;;
11042;SDS011;5574;48.786;10.120;2023-06-10T00:51:00;5.50;;;5.10;;
11042;SDS011;5574;48.786;10.120;2023-06-10T00:53:27;5.50;;;5.10;;
11042;SDS011;5574;48.786;10.120;2023-06-10T00:55:54;5.50;;;5.00;;
11042;SDS011;5574;48.786;10.120;2023-06-10T00:58:22;6.90;;;5.18;;
11042;SDS011;5574;48.786;10.120;2023-06-10T01:00:51;6.00;;;5.50;;
11042;SDS011;5574;48.786;10.120;2023-06-10T01:03:18;5.38;;;4.88;;
11042;SDS011;5574;48.786;10.120;2023-06-10T01:05:45;5.28;;;4.78;;
11042;SDS011;5574;48.786;10.120;2023-06-10T01:08:19;5.35;;;4.95;;
11042;SDS011;5574;48.786;10.120;2023-06-10T01:10:57;5.75;;;5.30;;
11042;SDS011;5574;48.786;10.120;2023-06-10T01:13:26;5.78;;;5.28;;
11042;SDS011;5574;48.786;10.120;2023-06-10T01:15:56;5.55;;;5.05;;
11042;SDS011;5574;48.786;10.120;2023-06-10T01:18:29;5.40;;;4.90;;
11042;SDS011;5574;48.786;10.120;2023-06-10T01:20:56;6.35;;;5.18;;
11042;SDS011;5574;48.786;10.120;2023-06-10T01:23:24;5.75;;;5.20;;
11042;SDS011;5574;48.786;10.120;2023-06-10T01:25:53;5.57;;;5.00;;
11042;SDS011;5574;48.786;10.120;2023-06-10T01:28:27;5.80;;;5.30;;
11042;SDS011;5574;48.786;10.120;2023-06-10T01:31:00;6.03;;;5.53;;
11042;SDS011;5574;48.786;10.120;2023-06-10T01:33:34;5.45;;;4.60;;
11042;SDS011;5574;48.786;10.120;2023-06-10T01:36:04;5.20;;;4.78;;
11042;SDS011;5574;48.786;10.120;2023-06-10T01:38:36;5.40;;;4.90;;
11042;SDS011;5574;48.786;10.120;2023-06-10T01:41:06;6.78;;;4.97;;
11042;SDS011;5574;48.786;10.120;2023-06-10T01:43:33;5.50;;;5.00;;
11042;SDS011;5574;48.786;10.120;2023-06-10T01:46:00;5.25;;;4.75;;
11042;SDS011;5574;48.786;10.120;2023-06-10T01:48:27;5.90;;;5.30;;
11042;SDS011;5574;48.786;10.120;2023-06-10T01:50:53;4.68;;;4.28;;
11042;SDS011;5574;48.786;10.120;2023-06-10T01:53:21;5.25;;;4.85;;
11042;SDS011;5574;48.786;10.120;2023-06-10T01:55:49;6.78;;;4.97;;
11042;SDS011;5574;48.786;10.120;2023-06-10T01:58:15;5.18;;;4.80;;
11042;SDS011;5574;48.786;10.120;2023-06-10T02:00:42;5.22;;;4.82;;
11042;SDS011;5574;48.786;10.120;2023-06-10T02:03:09;5.40;;;4.90;;
11042;SDS011;5574;48.786;10.120;2023-06-10T02:05:35;5.45;;;4.95;;
11042;SDS011;5574;48.786;10.120;2023-06-10T02:08:02;5.85;;;5.32;;
11042;SDS011;5574;48.786;10.120;2023-06-10T02:10:29;4.55;;;4.15;;
11042;SDS011;5574;48.786;10.120;2023-06-10T02:12:57;4.88;;;4.40;;
11042;SDS011;5574;48.786;10.120;2023-06-10T02:15:24;5.13;;;4.72;;
11042;SDS011;5574;48.786;10.120;2023-06-10T02:17:51;4.93;;;4.43;;
11042;SDS011;5574;48.786;10.120;2023-06-10T02:20:19;7.10;;;4.38;;
11042;SDS011;5574;48.786;10.120;2023-06-10T02:22:46;4.50;;;4.15;;
11042;SDS011;5574;48.786;10.120;2023-06-10T02:25:13;4.30;;;3.95;;
11042;SDS011;5574;48.786;10.120;2023-06-10T02:27:39;4.80;;;4.40;;
11042;SDS011;5574;48.786;10.120;2023-06-10T02:30:08;5.35;;;4.88;;
11042;SDS011;5574;48.786;10.120;2023-06-10T02:32:35;5.32;;;4.68;;
11042;SDS011;5574;48.786;10.120;2023-06-10T02:35:02;4.63;;;4.22;;
11042;SDS011;5574;48.786;10.120;2023-06-10T02:37:29;5.00;;;4.60;;
11042;SDS011;5574;48.786;10.120;2023-06-10T02:39:56;4.40;;;4.00;;
11042;SDS011;5574;48.786;10.120;2023-06-10T02:42:22;5.72;;;4.70;;
11042;SDS011;5574;48.786;10.120;2023-06-10T02:44:49;4.82;;;4.40;;
11042;SDS011;5574;48.786;10.120;2023-06-10T02:47:17;4.90;;;4.50;;
11042;SDS011;5574;48.786;10.120;2023-06-10T02:49:44;4.88;;;4.35;;
11042;SDS011;5574;48.786;10.120;2023-06-10T02:52:10;4.40;;;4.10;;
11042;SDS011;5574;48.786;10.120;2023-06-10T02:54:37;4.25;;;3.95;;
11042;SDS011;5574;48.786;10.120;2023-06-10T02:57:04;4.70;;;4.30;;
11042;SDS011;5574;48.786;10.120;2023-06-10T02:59:32;5.13;;;4.60;;
11042;SDS011;5574;48.786;10.120;2023-06-10T03:01:59;5.13;;;4.72;;
11042;SDS011;5574;48.786;10.120;2023-06-10T03:04:28;4.90;;;4.47;;
11042;SDS011;5574;48.786;10.120;2023-06-10T03:06:55;5.30;;;4.80;;
11042;SDS011;5574;48.786;10.120;2023-06-10T03:09:22;5.53;;;5.03;;
11042;SDS011;5574;48.786;10.120;2023-06-10T03:11:49;5.78;;;5.18;;
11042;SDS011;5574;48.786;10.120;2023-06-10T03:14:15;7.18;;;4.90;;
11042;SDS011;5574;48.786;10.120;2023-06-10T03:16:42;4.90;;;4.45;;
11042;SDS011;5574;48.786;10.120;2023-06-10T03:19:10;5.97;;;5.40;;
11042;SDS011;5574;48.786;10.120;2023-06-10T03:21:38;7.28;;;5.45;;
11042;SDS011;5574;48.786;10.120;2023-06-10T03:24:06;5.50;;;5.00;;
11042;SDS011;5574;48.786;10.120;2023-06-10T03:26:33;5.82;;;5.22;;
11042;SDS011;5574;48.786;10.120;2023-06-10T03:29:00;6.90;;;5.40;;
11042;SDS011;5574;48.786;10.120;2023-06-10T03:31:26;4.97;;;4.57;;
11042;SDS011;5574;48.786;10.120;2023-06-10T03:33:53;5.20;;;4.80;;
11042;SDS011;5574;48.786;10.120;2023-06-10T03:36:20;5.75;;;5.22;;
11042;SDS011;5574;48.786;10.120;2023-06-10T03:38:48;5.47;;;5.05;;
11042;SDS011;5574;48.786;10.120;2023-06-10T03:41:16;5.60;;;5.13;;
11042;SDS011;5574;48.786;10.120;2023-06-10T03:43:43;6.07;;;5.53;;
11042;SDS011;5574;48.786;10.120;2023-06-10T03:46:10;5.10;;;4.70;;
11042;SDS011;5574;48.786;10.120;2023-06-10T03:48:36;6.20;;;5.60;;
11042;SDS011;5574;48.786;10.120;2023-06-10T03:51:03;6.43;;;5.93;;
11042;SDS011;5574;48.786;10.120;2023-06-10T03:53:30;6.63;;;6.03;;
11042;SDS011;5574;48.786;10.120;2023-06-10T03:55:58;6.03;;;5.45;;
11042;SDS011;5574;48.786;10.120;2023-06-10T03:58:25;6.28;;;5.78;;
11042;SDS011;5574;48.786;10.120;2023-06-10T04:00:52;6.10;;;5.60;;
11042;SDS011;5574;48.786;10.120;2023-06-10T04:03:20;6.38;;;5.80;;
11042;SDS011;5574;48.786;10.120;2023-06-10T04:05:47;5.10;;;4.70;;
11042;SDS011;5574;48.786;10.120;2023-06-10T04:08:15;7.10;;;5.65;;
11042;SDS011;5574;48.786;10.120;2023-06-10T04:10:41;6.07;;;5.57;;
11042;SDS011;5574;48.786;10.120;2023-06-10T04:13:09;6.30;;;5.70;;
11042;SDS011;5574;48.786;10.120;2023-06-10T04:15:36;5.38;;;4.88;;
11042;SDS011;5574;48.786;10.120;2023-06-10T04:18:04;5.75;;;5.25;;
11042;SDS011;5574;48.786;10.120;2023-06-10T04:20:30;5.30;;;4.90;;
11042;SDS011;5574;48.786;10.120;2023-06-10T04:22:57;5.40;;;4.95;;
11042;SDS011;5574;48.786;10.120;2023-06-10T04:25:24;5.18;;;4.78;;
11042;SDS011;5574;48.786;10.120;2023-06-10T04:27:51;5.60;;;5.15;;
11042;SDS011;5574;48.786;10.120;2023-06-10T04:30:19;5.80;;;5.18;;
11042;SDS011;5574;48.786;10.120;2023-06-10T04:32:47;6.10;;;5.38;;
11042;SDS011;5574;48.786;10.120;2023-06-10T04:35:14;5.80;;;5.30;;
11042;SDS011;5574;48.786;10.120;2023-06-10T04:37:41;5.32;;;4.93;;
11042;SDS011;5574;48.786;10.120;2023-06-10T04:40:08;5.78;;;5.18;;
11042;SDS011;5574;48.786;10.120;2023-06-10T04:42:36;5.25;;;4.85;;
11042;SDS011;5574;48.786;10.120;2023-06-10T04:45:03;5.10;;;4.70;;
11042;SDS011;5574;48.786;10.120;2023-06-10T04:47:32;8.98;;;7.43;;
11042;SDS011;5574;48.786;10.120;2023-06-10T04:49:59;6.07;;;5.47;;
11042;SDS011;5574;48.786;10.120;2023-06-10T04:52:25;5.07;;;4.68;;
11042;SDS011;5574;48.786;10.120;2023-06-10T04:54:52;5.68;;;4.93;;
11042;SDS011;5574;48.786;10.120;2023-06-10T04:57:19;5.75;;;5.25;;
11042;SDS011;5574;48.786;10.120;2023-06-10T04:59:46;8.85;;;6.90;;
11042;SDS011;5574;48.786;10.120;2023-06-10T05:02:13;13.35;;;9.63;;
11042;SDS011;5574;48.786;10.120;2023-06-10T05:04:41;14.15;;;9.65;;
11042;SDS011;5574;48.786;10.120;2023-06-10T05:07:08;10.73;;;8.00;;
11042;SDS011;5574;48.786;10.120;2023-06-10T05:09:34;8.45;;;6.47;;
11042;SDS011;5574;48.786;10.120;2023-06-10T05:12:02;6.32;;;5.72;;
11042;SDS011;5574;48.786;10.120;2023-06-10T05:14:29;5.47;;;4.97;;
11042;SDS011;5574;48.786;10.120;2023-06-10T05:16:56;5.40;;;5.00;;
11042;SDS011;5574;48.786;10.120;2023-06-10T05:19:23;5.60;;;5.10;;
11042;SDS011;5574;48.786;10.120;2023-06-10T05:21:51;5.70;;;5.20;;
11042;SDS011;5574;48.786;10.120;2023-06-10T05:24:18;5.20;;;4.80;;
11042;SDS011;5574;48.786;10.120;2023-06-10T05:26:45;5.35;;;4.85;;
11042;SDS011;5574;48.786;10.120;2023-06-10T05:29:13;5.20;;;4.70;;
11042;SDS011;5574;48.786;10.120;2023-06-10T05:31:41;5.22;;;4.72;;
11042;SDS011;5574;48.786;10.120;2023-06-10T05:34:07;5.80;;;5.00;;
11042;SDS011;5574;48.786;10.120;2023-06-10T05:36:34;5.15;;;4.70;;
11042;SDS011;5574;48.786;10.120;2023-06-10T05:39:02;5.20;;;4.80;;
11042;SDS011;5574;48.786;10.120;2023-06-10T05:41:29;5.32;;;4.93;;
11042;SDS011;5574;48.786;10.120;2023-06-10T05:43:56;5.72;;;5.22;;
11042;SDS011;5574;48.786;10.120;2023-06-10T05:46:23;6.57;;;4.47;;
11042;SDS011;5574;48.786;10.120;2023-06-10T05:48:49;6.03;;;4.90;;
11042;SDS011;5574;48.786;10.120;2023-06-10T05:51:16;5.25;;;4.85;;
11042;SDS011;5574;48.786;10.120;2023-06-10T05:53:43;5.03;;;4.63;;
11042;SDS011;5574;48.786;10.120;2023-06-10T05:56:12;5.43;;;4.55;;
11042;SDS011;5574;48.786;10.120;2023-06-10T05:58:39;5.00;;;4.60;;
11042;SDS011;5574;48.786;10.120;2023-06-10T06:01:06;4.88;;;4.47;;
11042;SDS011;5574;48.786;10.120;2023-06-10T06:03:32;5.25;;;4.75;;
11042;SDS011;5574;48.786;10.120;2023-06-10T06:05:59;5.15;;;4.65;;
11042;SDS011;5574;48.786;10.120;2023-06-10T06:08:26;5.45;;;4.82;;
11042;SDS011;5574;48.786;10.120;2023-06-10T06:10:52;5.32;;;4.82;;
11042;SDS011;5574;48.786;10.120;2023-06-10T06:13:20;5.97;;;4.35;;
11042;SDS011;5574;48.786;10.120;2023-06-10T06:15:47;5.15;;;4.75;;
11042;SDS011;5574;48.786;10.120;2023-06-10T06:18:14;12.23;;;5.00;;
11042;SDS011;5574;48.786;10.120;2023-06-10T06:20:41;6.90;;;5.05;;
11042;SDS011;5574;48.786;10.120;2023-06-10T06:23:07;5.13;;;4.53;;
11042;SDS011;5574;48.786;10.120;2023-06-10T06:25:35;4.95;;;4.53;;
11042;SDS011;5574;48.786;10.120;2023-06-10T06:28:03;5.32;;;4.82;;
11042;SDS011;5574;48.786;10.120;2023-06-10T06:30:31;6.38;;;5.10;;
11042;SDS011;5574;48.786;10.120;2023-06-10T06:32:58;5.68;;;4.32;;
11042;SDS011;5574;48.786;10.120;2023-06-10T06:35:25;5.32;;;4.43;;
11042;SDS011;5574;48.786;10.120;2023-06-10T06:37:51;4.20;;;3.80;;
11042;SDS011;5574;48.786;10.120;2023-06-10T06:40:18;4.43;;;4.03;;
11042;SDS011;5574;48.786;10.120;2023-06-10T06:42:45;11.30;;;5.53;;
11042;SDS011;5574;48.786;10.120;2023-06-10T06:45:12;4.68;;;4.32;;
11042;SDS011;5574;48.786;10.120;2023-06-10T06:47:40;4.75;;;4.20;;
11042;SDS011;5574;48.786;10.120;2023-06-10T06:50:06;4.72;;;4.28;;
11042;SDS011;5574;48.786;10.120;2023-06-10T06:52:34;4.18;;;3.88;;
11042;SDS011;5574;48.786;10.120;2023-06-10T06:55:00;4.63;;;4.28;;
11042;SDS011;5574;48.786;10.120;2023-06-10T06:57:27;4.50;;;4.20;;
11042;SDS011;5574;48.786;10.120;2023-06-10T06:59:54;5.28;;;4.38;;
11042;SDS011;5574;48.786;10.120;2023-06-10T07:02:20;5.20;;;4.10;;
11042;SDS011;5574;48.786;10.120;2023-06-10T07:04:49;6.65;;;4.07;;
11042;SDS011;5574;48.786;10.120;2023-06-10T07:07:16;5.43;;;4.45;;
11042;SDS011;5574;48.786;10.120;2023-06-10T07:09:42;4.30;;;4.00;;
11042;SDS011;5574;48.786;10.120;2023-06-10T07:12:09;4.38;;;4.07;;
11042;SDS011;5574;48.786;10.120;2023-06-10T07:14:36;6.40;;;4.40;;
11042;SDS011;5574;48.786;10.120;2023-06-10T07:17:03;4.30;;;3.92;;
11042;SDS011;5574;48.786;10.120;2023-06-10T07:19:30;4.53;;;4.13;;
11042;SDS011;5574;48.786;10.120;2023-06-10T07:21:57;4.88;;;4.47;;
11042;SDS011;5574;48.786;10.120;2023-06-10T07:24:24;10.00;;;4.78;;
11042;SDS011;5574;48.786;10.120;2023-06-10T07:26:51;4.28;;;3.97;;
11042;SDS011;5574;48.786;10.120;2023-06-10T07:29:18;5.30;;;4.30;;
11042;SDS011;5574;48.786;10.120;2023-06-10T07:31:44;5.55;;;4.75;;
11042;SDS011;5574;48.786;10.120;2023-06-10T07:34:11;4.57;;;4.18;;
11042;SDS011;5574;48.786;10.120;2023-06-10T07:36:38;4.38;;;4.07;;
11042;SDS011;5574;48.786;10.120;2023-06-10T07:39:06;4.53;;;4.18;;
11042;SDS011;5574;48.786;10.120;2023-06-10T07:41:32;4.15;;;3.85;;
11042;SDS011;5574;48.786;10.120;2023-06-10T07:44:00;4.38;;;4.07;;
11042;SDS011;5574;48.786;10.120;2023-06-10T07:46:27;4.40;;;4.03;;
11042;SDS011;5574;48.786;10.120;2023-06-10T07:48:54;11.07;;;4.55;;
11042;SDS011;5574;48.786;10.120;2023-06-10T07:51:21;4.72;;;3.72;;
11042;SDS011;5574;48.786;10.120;2023-06-10T07:53:47;6.13;;;3.95;;
11042;SDS011;5574;48.786;10.120;2023-06-10T07:56:16;4.65;;;4.20;;
11042;SDS011;5574;48.786;10.120;2023-06-10T07:58:42;4.63;;;4.32;;
11042;SDS011;5574;48.786;10.120;2023-06-10T08:01:09;4.07;;;3.78;;
11042;SDS011;5574;48.786;10.120;2023-06-10T08:03:36;5.05;;;4.57;;
11042;SDS011;5574;48.786;10.120;2023-06-10T08:06:02;4.47;;;4.07;;
11042;SDS011;5574;48.786;10.120;2023-06-10T08:08:30;4.78;;;4.38;;
11042;SDS011;5574;48.786;10.120;2023-06-10T08:10:57;6.35;;;4.45;;
11042;SDS011;5574;48.786;10.120;2023-06-10T08:13:25;4.50;;;4.10;;
11042;SDS011;5574;48.786;10.120;2023-06-10T08:15:51;4.43;;;4.03;;
11042;SDS011;5574;48.786;10.120;2023-06-10T08:18:20;6.00;;;4.55;;
11042;SDS011;5574;48.786;10.120;2023-06-10T08:20:47;5.25;;;4.30;;
11042;SDS011;5574;48.786;10.120;2023-06-10T08:23:14;5.10;;;4.68;;
11042;SDS011;5574;48.786;10.120;2023-06-10T08:25:41;4.40;;;4.00;;
11042;SDS011;5574;48.786;10.120;2023-06-10T08:28:07;5.25;;;4.80;;
11042;SDS011;5574;48.786;10.120;2023-06-10T08:30:35;5.25;;;4.60;;
11042;SDS011;5574;48.786;10.120;2023-06-10T08:33:02;7.95;;;4.90;;
11042;SDS011;5574;48.786;10.120;2023-06-10T08:35:29;4.82;;;4.03;;
11042;SDS011;5574;48.786;10.120;2023-06-10T08:37:55;5.50;;;4.88;;
11042;SDS011;5574;48.786;10.120;2023-06-10T08:40:22;5.82;;;5.25;;
11042;SDS011;5574;48.786;10.120;2023-06-10T08:42:51;5.40;;;4.90;;
11042;SDS011;5574;48.786;10.120;2023-06-10T08:45:23;8.32;;;4.90;;
11042;SDS011;5574;48.786;10.120;2023-06-10T08:47:51;6.53;;;4.60;;
11042;SDS011;5574;48.786;10.120;2023-06-10T08:50:22;7.38;;;5.00;;
11042;SDS011;5574;48.786;10.120;2023-06-10T08:52:50;5.47;;;4.97;;
11042;SDS011;5574;48.786;10.120;2023-06-10T08:55:23;5.88;;;4.50;;
11042;SDS011;5574;48.786;10.120;2023-06-10T08:57:53;5.00;;;4.57;;
11042;SDS011;5574;48.786;10.120;2023-06-10T09:00:20;5.15;;;4.47;;
11042;SDS011;5574;48.786;10.120;2023-06-10T09:02:48;5.25;;;4.75;;
11042;SDS011;5574;48.786;10.120;2023-06-10T09:05:16;5.05;;;4.65;;
11042;SDS011;5574;48.786;10.120;2023-06-10T09:07:45;5.03;;;4.63;;
11042;SDS011;5574;48.786;10.120;2023-06-10T09:10:13;4.63;;;4.32;;
11042;SDS011;5574;48.786;10.120;2023-06-10T09:12:40;5.10;;;4.70;;
11042;SDS011;5574;48.786;10.120;2023-06-10T09:15:07;5.80;;;5.18;;
11042;SDS011;5574;48.786;10.120;2023-06-10T09:17:36;4.88;;;4.47;;
11042;SDS011;5574;48.786;10.120;2023-06-10T09:20:06;5.05;;;4.60;;
11042;SDS011;5574;48.786;10.120;2023-06-10T09:22:34;4.72;;;4.32;;
11042;SDS011;5574;48.786;10.120;2023-06-10T09:25:02;6.90;;;4.70;;
11042;SDS011;5574;48.786;10.120;2023-06-10T09:27:30;4.78;;;4.40;;
11042;SDS011;5574;48.786;10.120;2023-06-10T09:29:58;5.22;;;4.47;;
11042;SDS011;5574;48.786;10.120;2023-06-10T09:32:24;4.53;;;4.18;;
11042;SDS011;5574;48.786;10.120;2023-06-10T09:34:52;5.35;;;4.90;;
11042;SDS011;5574;48.786;10.120;2023-06-10T09:37:22;4.40;;;4.10;;
11042;SDS011;5574;48.786;10.120;2023-06-10T09:40:04;4.63;;;4.30;;
11042;SDS011;5574;48.786;10.120;2023-06-10T09:42:32;4.40;;;4.03;;
11042;SDS011;5574;48.786;10.120;2023-06-10T09:45:00;4.25;;;3.95;;
11042;SDS011;5574;48.786;10.120;2023-06-10T09:47:27;12.38;;;5.28;;
11042;SDS011;5574;48.786;10.120;2023-06-10T09:49:54;4.45;;;4.05;;
11042;SDS011;5574;48.786;10.120;2023-06-10T09:52:21;4.72;;;4.07;;
11042;SDS011;5574;48.786;10.120;2023-06-10T09:54:48;4.95;;;4.53;;
11042;SDS011;5574;48.786;10.120;2023-06-10T09:57:17;4.05;;;3.75;;
11042;SDS011;5574;48.786;10.120;2023-06-10T09:59:46;14.98;;;5.50;;
11042;SDS011;5574;48.786;10.120;2023-06-10T10:02:13;6.07;;;4.18;;
11042;SDS011;5574;48.786;10.120;2023-06-10T10:04:41;5.22;;;4.15;;
11042;SDS011;5574;48.786;10.120;2023-06-10T10:07:08;4.78;;;4.32;;
11042;SDS011;5574;48.786;10.120;2023-06-10T10:09:35;5.05;;;4.18;;
11042;SDS011;5574;48.786;10.120;2023-06-10T10:12:02;4.43;;;4.13;;
11042;SDS011;5574;48.786;10.120;2023-06-10T10:14:35;4.30;;;3.90;;
11042;SDS011;5574;48.786;10.120;2023-06-10T10:17:04;19.67;;;5.75;;
11042;SDS011;5574;48.786;10.120;2023-06-10T10:19:33;3.92;;;3.63;;
11042;SDS011;5574;48.786;10.120;2023-06-10T10:22:07;4.47;;;4.05;;
11042;SDS011;5574;48.786;10.120;2023-06-10T10:24:36;4.85;;;4.45;;
11042;SDS011;5574;48.786;10.120;2023-06-10T10:27:07;5.93;;;4.47;;
11042;SDS011;5574;48.786;10.120;2023-06-10T10:29:41;9.50;;;5.72;;
11042;SDS011;5574;48.786;10.120;2023-06-10T10:32:12;4.75;;;4.35;;
11042;SDS011;5574;48.786;10.120;2023-06-10T10:34:42;5.35;;;4.85;;
11042;SDS011;5574;48.786;10.120;2023-06-10T10:37:21;5.43;;;5.03;;
11042;SDS011;5574;48.786;10.120;2023-06-10T10:39:48;6.30;;;4.65;;
11042;SDS011;5574;48.786;10.120;2023-06-10T10:42:16;5.30;;;4.80;;
11042;SDS011;5574;48.786;10.120;2023-06-10T10:44:45;4.25;;;3.90;;
11042;SDS011;5574;48.786;10.120;2023-06-10T10:47:13;4.95;;;4.20;;
11042;SDS011;5574;48.786;10.120;2023-06-10T10:49:42;5.07;;;4.25;;
11042;SDS011;5574;48.786;10.120;2023-06-10T10:52:11;5.60;;;4.32;;
11042;SDS011;5574;48.786;10.120;2023-06-10T10:54:39;4.63;;;4.22;;
11042;SDS011;5574;48.786;10.120;2023-06-10T10:57:10;4.68;;;4.28;;
11042;SDS011;5574;48.786;10.120;2023-06-10T10:59:43;5.18;;;4.00;;
11042;SDS011;5574;48.786;10.120;2023-06-10T11:02:32;5.03;;;4.45;;
11042;SDS011;5574;48.786;10.120;2023-06-10T11:05:00;7.20;;;4.03;;
11042;SDS011;5574;48.786;10.120;2023-06-10T11:07:29;4.68;;;4.28;;
11042;SDS011;5574;48.786;10.120;2023-06-10T11:09:59;5.00;;;4.60;;
11042;SDS011;5574;48.786;10.120;2023-06-10T11:12:39;4.88;;;4.32;;
11042;SDS011;5574;48.786;10.120;2023-06-10T11:15:09;4.75;;;4.28;;
11042;SDS011;5574;48.786;10.120;2023-06-10T11:17:35;4.80;;;4.40;;
11042;SDS011;5574;48.786;10.120;2023-06-10T11:20:02;4.40;;;4.10;;
11042;SDS011;5574;48.786;10.120;2023-06-10T11:22:30;5.07;;;4.68;;
11042;SDS011;5574;48.786;10.120;2023-06-10T11:24:57;5.47;;;4.97;;
11042;SDS011;5574;48.786;10.120;2023-06-10T11:27:24;5.03;;;4.53;;
11042;SDS011;5574;48.786;10.120;2023-06-10T11:29:57;4.50;;;4.10;;
11042;SDS011;5574;48.786;10.120;2023-06-10T11:32:29;4.57;;;4.18;;
11042;SDS011;5574;48.786;10.120;2023-06-10T11:34:57;4.85;;;4.40;;
11042;SDS011;5574;48.786;10.120;2023-06-10T11:37:24;4.13;;;3.83;;
11042;SDS011;5574;48.786;10.120;2023-06-10T11:39:51;4.22;;;3.85;;
11042;SDS011;5574;48.786;10.120;2023-06-10T11:42:18;4.65;;;4.05;;
11042;SDS011;5574;48.786;10.120;2023-06-10T11:44:48;7.45;;;4.60;;
11042;SDS011;5574;48.786;10.120;2023-06-10T11:47:15;4.53;;;4.13;;
11042;SDS011;5574;48.786;10.120;2023-06-10T11:49:43;3.80;;;3.50;;
11042;SDS011;5574;48.786;10.120;2023-06-10T11:52:10;4.05;;;3.75;;
11042;SDS011;5574;48.786;10.120;2023-06-10T11:54:37;4.00;;;3.70;;
11042;SDS011;5574;48.786;10.120;2023-06-10T11:57:04;3.90;;;3.60;;
11042;SDS011;5574;48.786;10.120;2023-06-10T11:59:33;4.78;;;4.22;;
11042;SDS011;5574;48.786;10.120;2023-06-10T12:02:00;4.32;;;3.92;;
11042;SDS011;5574;48.786;10.120;2023-06-10T12:04:28;3.80;;;3.50;;
11042;SDS011;5574;48.786;10.120;2023-06-10T12:06:56;4.15;;;3.75;;
11042;SDS011;5574;48.786;10.120;2023-06-10T12:09:23;3.70;;;3.40;;
11042;SDS011;5574;48.786;10.120;2023-06-10T12:11:52;4.10;;;3.80;;
11042;SDS011;5574;48.786;10.120;2023-06-10T12:17:22;5.60;;;4.00;;
11042;SDS011;5574;48.786;10.120;2023-06-10T12:19:49;5.15;;;3.95;;
11042;SDS011;5574;48.786;10.120;2023-06-10T12:22:18;4.38;;;4.07;;
11042;SDS011;5574;48.786;10.120;2023-06-10T12:24:45;4.28;;;3.97;;
11042;SDS011;5574;48.786;10.120;2023-06-10T12:27:24;5.05;;;4.03;;
11042;SDS011;5574;48.786;10.120;2023-06-10T12:29:53;4.20;;;3.90;;
11042;SDS011;5574;48.786;10.120;2023-06-10T12:32:20;4.32;;;4.03;;
11042;SDS011;5574;48.786;10.120;2023-06-10T12:34:54;4.57;;;4.18;;
11042;SDS011;5574;48.786;10.120;2023-06-10T12:37:31;4.20;;;3.90;;
11042;SDS011;5574;48.786;10.120;2023-06-10T12:39:59;4.32;;;4.03;;
11042;SDS011;5574;48.786;10.120;2023-06-10T12:42:27;3.92;;;3.63;;
11042;SDS011;5574;48.786;10.120;2023-06-10T12:44:55;4.78;;;4.35;;
11042;SDS011;5574;48.786;10.120;2023-06-10T12:47:28;4.78;;;3.88;;
11042;SDS011;5574;48.786;10.120;2023-06-10T12:49:58;3.88;;;3.58;;
11042;SDS011;5574;48.786;10.120;2023-06-10T12:52:24;3.88;;;3.50;;
11042;SDS011;5574;48.786;10.120;2023-06-10T12:54:53;3.83;;;3.53;;
11042;SDS011;5574;48.786;10.120;2023-06-10T12:57:19;4.43;;;4.03;;
11042;SDS011;5574;48.786;10.120;2023-06-10T12:59:46;4.25;;;3.75;;
11042;SDS011;5574;48.786;10.120;2023-06-10T13:02:17;4.30;;;3.30;;
11042;SDS011;5574;48.786;10.120;2023-06-10T13:04:44;3.58;;;3.28;;
11042;SDS011;5574;48.786;10.120;2023-06-10T13:07:11;3.80;;;3.50;;
11042;SDS011;5574;48.786;10.120;2023-06-10T13:09:38;3.45;;;3.13;;
11042;SDS011;5574;48.786;10.120;2023-06-10T13:12:07;3.58;;;3.28;;
11042;SDS011;5574;48.786;10.120;2023-06-10T13:14:34;3.55;;;3.25;;
11042;SDS011;5574;48.786;10.120;2023-06-10T13:17:02;4.05;;;3.75;;
11042;SDS011;5574;48.786;10.120;2023-06-10T13:19:30;3.83;;;3.53;;
11042;SDS011;5574;48.786;10.120;2023-06-10T13:21:57;3.75;;;3.45;;
11042;SDS011;5574;48.786;10.120;2023-06-10T13:24:24;3.67;;;3.38;;
11042;SDS011;5574;48.786;10.120;2023-06-10T13:26:51;3.78;;;3.58;;
11042;SDS011;5574;48.786;10.120;2023-06-10T13:29:19;3.88;;;3.60;;
11042;SDS011;5574;48.786;10.120;2023-06-10T13:31:45;3.95;;;3.65;;
11042;SDS011;5574;48.786;10.120;2023-06-10T13:34:12;3.83;;;3.53;;
11042;SDS011;5574;48.786;10.120;2023-06-10T13:36:39;4.22;;;3.92;;
11042;SDS011;5574;48.786;10.120;2023-06-10T13:39:06;3.80;;;3.50;;
11042;SDS011;5574;48.786;10.120;2023-06-10T13:41:33;4.05;;;3.63;;
11042;SDS011;5574;48.786;10.120;2023-06-10T13:43:59;3.35;;;3.15;;
11042;SDS011;5574;48.786;10.120;2023-06-10T13:46:27;3.58;;;3.28;;
11042;SDS011;5574;48.786;10.120;2023-06-10T13:48:54;3.45;;;3.25;;
11042;SDS011;5574;48.786;10.120;2023-06-10T13:51:21;3.70;;;3.45;;
11042;SDS011;5574;48.786;10.120;2023-06-10T13:53:47;3.85;;;3.40;;
11042;SDS011;5574;48.786;10.120;2023-06-10T13:56:16;4.20;;;3.80;;
11042;SDS011;5574;48.786;10.120;2023-06-10T13:58:43;4.47;;;4.15;;
11042;SDS011;5574;48.786;10.120;2023-06-10T14:01:10;3.97;;;3.67;;
11042;SDS011;5574;48.786;10.120;2023-06-10T14:03:38;3.90;;;3.60;;
11042;SDS011;5574;48.786;10.120;2023-06-10T14:06:05;3.72;;;3.53;;
11042;SDS011;5574;48.786;10.120;2023-06-10T14:08:32;4.05;;;3.65;;
11042;SDS011;5574;48.786;10.120;2023-06-10T14:10:59;4.20;;;3.75;;
11042;SDS011;5574;48.786;10.120;2023-06-10T14:13:25;5.47;;;4.00;;
11042;SDS011;5574;48.786;10.120;2023-06-10T14:15:53;3.67;;;3.38;;
11042;SDS011;5574;48.786;10.120;2023-06-10T14:18:19;4.28;;;3.90;;
11042;SDS011;5574;48.786;10.120;2023-06-10T14:20:48;4.00;;;3.70;;
11042;SDS011;5574;48.786;10.120;2023-06-10T14:23:14;4.60;;;3.97;;
11042;SDS011;5574;48.786;10.120;2023-06-10T14:25:41;4.32;;;4.00;;
11042;SDS011;5574;48.786;10.120;2023-06-10T14:28:07;4.93;;;4.45;;
11042;SDS011;5574;48.786;10.120;2023-06-10T14:30:34;4.60;;;4.30;;
11042;SDS011;5574;48.786;10.120;2023-06-10T14:33:01;3.58;;;3.28;;
11042;SDS011;5574;48.786;10.120;2023-06-10T14:35:28;5.07;;;4.70;;
11042;SDS011;5574;48.786;10.120;2023-06-10T14:37:56;4.53;;;4.22;;
11042;SDS011;5574;48.786;10.120;2023-06-10T14:40:22;4.53;;;4.13;;
11042;SDS011;5574;48.786;10.120;2023-06-10T14:42:51;4.20;;;3.90;;
11042;SDS011;5574;48.786;10.120;2023-06-10T14:45:18;4.47;;;4.00;;
11042;SDS011;5574;48.786;10.120;2023-06-10T14:47:44;4.32;;;4.03;;
11042;SDS011;5574;48.786;10.120;2023-06-10T14:50:12;4.28;;;3.92;;
11042;SDS011;5574;48.786;10.120;2023-06-10T14:52:38;6.22;;;4.40;;
11042;SDS011;5574;48.786;10.120;2023-06-10T14:55:07;4.50;;;4.20;;